Time;durP1;ratioP1;P1;durP2;ratioP2;P2;SDS_P1;SDS_P2;PMS_P1;PMS_P2;Temp;Humidity;BMP_temperature;BMP_pressure;BME280_temperature;BME280_humidity;BME280_pressure;Samples;Min_cycle;Max_cycle;Signal;HPM_P1;HPM_P2
2021/06/05 00:00:24;;;;;;;19.23;9.25;;;;;;;15.20;58.82;99807.02;1709365;83;21060;-72
2021/06/05 00:02:51;;;;;;;22.02;10.10;;;;;;;15.14;59.04;99803.09;1713630;82;21048;-73
2021/06/05 00:05:17;;;;;;;20.05;9.40;;;;;;;15.08;58.84;99807.62;1705924;82;20990;-73
2021/06/05 00:07:45;;;;;;;23.50;10.08;;;;;;;15.05;58.65;99809.20;1703185;83;21029;-73
2021/06/05 00:10:16;;;;;;;20.57;9.93;;;;;;;15.14;58.36;99807.09;1703569;83;21048;-73
2021/06/05 00:12:42;;;;;;;22.77;9.28;;;;;;;15.21;58.36;99802.05;1703673;83;21013;-74
2021/06/05 00:15:13;;;;;;;37.85;10.20;;;;;;;15.12;58.71;99797.05;1700591;83;21702;-74
2021/06/05 00:17:39;;;;;;;28.92;10.68;;;;;;;15.04;59.10;99796.89;1701350;83;21089;-74
2021/06/05 00:20:09;;;;;;;25.05;10.18;;;;;;;14.95;59.20;99797.69;1701094;83;21489;-74
2021/06/05 00:22:36;;;;;;;22.22;9.98;;;;;;;14.85;59.43;99804.33;1702807;83;21009;-74
2021/06/05 00:25:06;;;;;;;18.82;8.90;;;;;;;14.74;59.63;99795.92;1701868;83;21089;-74
2021/06/05 00:27:32;;;;;;;17.48;9.53;;;;;;;14.68;59.91;99790.66;1702286;83;21025;-74
2021/06/05 00:29:58;;;;;;;18.27;8.93;;;;;;;14.62;59.86;99799.14;1702785;82;21036;-73
2021/06/05 00:32:26;;;;;;;19.05;8.78;;;;;;;14.55;59.99;99796.65;1703313;83;21083;-73
2021/06/05 00:34:52;;;;;;;17.90;8.70;;;;;;;14.47;60.10;99795.98;1704445;83;21052;-73
2021/06/05 00:37:19;;;;;;;21.40;8.88;;;;;;;14.41;60.21;99798.70;1704465;82;21481;-73
2021/06/05 00:39:45;;;;;;;18.65;8.50;;;;;;;14.40;60.23;99793.52;1704697;82;20994;-73
2021/06/05 00:42:12;;;;;;;16.73;8.40;;;;;;;14.51;60.06;99792.07;1701630;82;21480;-73
2021/06/05 00:44:38;;;;;;;16.37;9.28;;;;;;;14.50;60.23;99797.06;1703300;83;21019;-73
2021/06/05 00:47:05;;;;;;;15.32;8.65;;;;;;;14.43;60.42;99795.89;1702190;83;20993;-73
2021/06/05 00:49:32;;;;;;;18.45;8.70;;;;;;;14.36;60.60;99794.72;1702918;82;21052;-73
2021/06/05 00:52:01;;;;;;;15.58;8.23;;;;;;;14.28;60.86;99791.89;1703147;82;21052;-73
2021/06/05 00:54:29;;;;;;;15.78;8.53;;;;;;;14.20;61.08;99794.70;1705607;83;21013;-75
2021/06/05 00:56:59;;;;;;;19.95;8.95;;;;;;;14.13;61.52;99802.87;1704918;83;21037;-76
2021/06/05 00:59:27;;;;;;;20.48;8.48;;;;;;;14.08;61.64;99803.24;1703168;83;21509;-75
2021/06/05 01:01:53;;;;;;;13.75;7.50;;;;;;;14.02;61.95;99802.92;1701583;83;21505;-75
2021/06/05 01:04:20;;;;;;;16.07;8.55;;;;;;;14.02;61.88;99806.91;1702904;83;21600;-75
2021/06/05 01:07:09;;;;;;;19.62;7.55;;;;;;;14.15;61.82;99800.91;1713802;82;21029;-75
2021/06/05 01:10:00;;;;;;;13.08;6.65;;;;;;;14.14;61.94;99804.53;1716533;82;20986;-75
2021/06/05 01:13:03;;;;;;;17.23;8.05;;;;;;;14.08;62.52;99798.42;1715883;82;21013;-74
2021/06/05 01:15:56;;;;;;;25.80;9.10;;;;;;;14.03;62.81;99800.63;1715004;82;21072;-74
2021/06/05 01:18:32;;;;;;;13.72;7.28;;;;;;;13.97;63.10;99800.64;1715803;82;21044;-74
2021/06/05 01:21:35;;;;;;;14.53;7.20;;;;;;;13.93;63.33;99800.05;1713622;82;21017;-74
2021/06/05 01:24:30;;;;;;;12.35;7.03;;;;;;;14.09;63.24;99798.76;1714305;82;21045;-74
2021/06/05 01:26:58;;;;;;;;;;;;;;;14.07;63.37;99794.07;1717333;82;21520;-75
2021/06/05 01:29:29;;;;;;;19.07;7.25;;;;;;;14.01;63.59;99794.08;1707977;82;20124;-75
2021/06/05 01:31:59;;;;;;;11.00;7.20;;;;;;;13.93;63.87;99801.88;1708467;83;21146;-75
2021/06/05 01:34:31;;;;;;;13.05;7.05;;;;;;;13.89;64.06;99789.81;1716472;82;21037;-75
2021/06/05 01:36:59;;;;;;;10.28;6.62;;;;;;;13.89;64.23;99793.30;1717948;82;20981;-74
2021/06/05 01:39:31;;;;;;;16.25;6.83;;;;;;;14.04;64.02;99792.98;1717127;82;21040;-74
2021/06/05 01:42:01;;;;;;;13.63;7.30;;;;;;;14.07;63.98;99786.09;1719857;82;21580;-74
2021/06/05 01:44:28;;;;;;;13.95;7.12;;;;;;;14.03;64.06;99793.48;1708214;83;21052;-74
2021/06/05 01:46:55;;;;;;;9.98;6.55;;;;;;;14.01;64.17;99790.59;1683841;83;21013;-74
2021/06/05 01:49:23;;;;;;;14.43;7.05;;;;;;;13.99;64.26;99789.87;1712435;82;21037;-75
2021/06/05 01:52:00;;;;;;;13.75;6.67;;;;;;;13.96;64.36;99795.45;1714529;82;21064;-75
2021/06/05 01:54:37;;;;;;;17.55;6.60;;;;;;;13.99;64.29;99789.41;1713906;82;21024;-75
2021/06/05 01:57:08;;;;;;;12.33;6.40;;;;;;;14.11;64.04;99788.84;1719458;82;21004;-73
2021/06/05 01:59:37;;;;;;;10.45;7.00;;;;;;;14.08;64.12;99794.44;1724201;82;20965;-73
2021/06/05 02:02:06;;;;;;;11.57;7.03;;;;;;;13.98;64.40;99788.17;1737585;82;21571;-73
2021/06/05 02:04:32;;;;;;;15.13;6.97;;;;;;;13.98;64.40;99788.17;1706338;82;20949;-73
2021/06/05 02:07:00;;;;;;;15.28;6.87;;;;;;;13.93;64.50;99786.75;1712522;82;21096;-73
2021/06/05 02:09:29;;;;;;;17.95;6.70;;;;;;;13.95;64.68;99783.96;1710040;82;21099;-73
2021/06/05 02:12:17;;;;;;;13.40;6.37;;;;;;;13.95;64.68;99783.96;1711359;82;21056;-73
2021/06/05 02:14:59;;;;;;;13.83;6.60;;;;;;;14.10;64.27;99785.83;1711941;81;21001;-73
2021/06/05 02:17:28;;;;;;;13.88;6.87;;;;;;;14.09;64.31;99782.80;1709695;83;21110;-73
2021/06/05 02:20:03;;;;;;;14.98;7.30;;;;;;;13.99;64.70;99784.09;1706768;82;20989;-73
2021/06/05 02:22:32;;;;;;;16.32;6.65;;;;;;;13.99;64.70;99784.09;1674319;85;21044;-73
2021/06/05 02:25:01;;;;;;;12.75;6.33;;;;;;;13.97;64.74;99791.83;1677997;83;22264;-73
2021/06/05 02:27:30;;;;;;;14.98;6.17;;;;;;;13.95;64.90;99784.46;1676960;84;20996;-73
2021/06/05 02:29:58;;;;;;;11.95;5.85;;;;;;;14.05;64.73;99777.39;1697714;82;21531;-74
2021/06/05 02:32:30;;;;;;;11.73;5.92;;;;;;;14.11;64.67;99782.20;1696284;82;21104;-74
2021/06/05 02:34:58;;;;;;;;;;;;;;;14.07;64.80;99782.11;1712325;82;21033;-74
2021/06/05 02:37:28;;;;;;;13.68;6.78;;;;;;;14.05;64.94;99790.69;1714136;82;20201;-74
2021/06/05 02:39:58;;;;;;;15.45;6.50;;;;;;;13.98;65.17;99782.86;1708684;82;20997;-74
2021/06/05 02:42:26;;;;;;;14.07;6.65;;;;;;;13.95;65.21;99779.14;1708227;83;21051;-74
2021/06/05 02:44:56;;;;;;;18.23;7.42;;;;;;;13.95;65.23;99780.47;1714325;82;21008;-73
2021/06/05 02:47:25;;;;;;;12.40;6.05;;;;;;;14.00;65.11;99779.13;1715829;82;20998;-73
2021/06/05 02:49:52;;;;;;;11.00;6.22;;;;;;;14.16;64.76;99778.66;1712773;82;21576;-73
2021/06/05 02:52:34;;;;;;;10.95;6.87;;;;;;;14.20;64.76;99781.41;1710573;83;21045;-73
2021/06/05 02:55:19;;;;;;;9.33;6.47;;;;;;;14.20;64.76;99782.73;1672966;85;20995;-74
2021/06/05 02:57:45;;;;;;;10.25;6.53;;;;;;;14.21;64.82;99779.11;1675964;83;22262;-73
2021/06/05 03:00:19;;;;;;;10.80;6.28;;;;;;;14.23;64.87;99776.31;1674658;85;21067;-73
2021/06/05 03:02:48;;;;;;;11.30;6.50;;;;;;;14.23;64.91;99776.31;1712189;82;21060;-74
2021/06/05 03:05:16;;;;;;;13.00;6.15;;;;;;;14.29;64.65;99781.11;1710036;83;21527;-75
2021/06/05 03:07:43;;;;;;;9.98;5.85;;;;;;;14.49;64.35;99788.72;1716751;82;21052;-75
2021/06/05 03:10:12;;;;;;;10.23;5.87;;;;;;;14.57;64.06;99784.06;1718288;82;20997;-75
2021/06/05 03:12:38;;;;;;;10.98;6.08;;;;;;;14.56;63.98;99783.20;1715533;82;21047;-75
2021/06/05 03:15:09;;;;;;;10.98;6.35;;;;;;;14.57;64.00;99780.08;1714652;82;21040;-75
2021/06/05 03:17:37;;;;;;;11.85;6.12;;;;;;;14.64;63.99;99774.61;1718980;82;21001;-75
2021/06/05 03:20:07;;;;;;;10.15;6.08;;;;;;;14.72;63.98;99781.43;1715453;82;22120;-73
2021/06/05 03:22:33;;;;;;;10.28;6.08;;;;;;;14.82;64.14;99784.61;1711127;83;21040;-74
2021/06/05 03:25:00;;;;;;;8.00;5.08;;;;;;;14.90;64.31;99791.45;1718056;82;21516;-74
2021/06/05 03:27:28;;;;;;;14.07;5.75;;;;;;;15.05;63.95;99779.91;1715531;82;21024;-74
2021/06/05 03:29:57;;;;;;;8.03;5.83;;;;;;;15.23;62.98;99774.29;1715617;82;21044;-73
2021/06/05 03:32:24;;;;;;;8.53;5.22;;;;;;;15.46;62.44;99774.05;1715020;82;21001;-74
2021/06/05 03:34:52;;;;;;;9.13;5.70;;;;;;;16.11;60.72;99768.63;1717102;82;21060;-74
2021/06/05 03:37:19;;;;;;;9.48;5.67;;;;;;;16.82;58.92;99765.44;1710400;83;21080;-75
2021/06/05 03:39:48;;;;;;;10.25;5.75;;;;;;;17.41;57.25;99767.79;1715510;82;21083;-76
2021/06/05 03:42:15;;;;;;;10.58;6.30;;;;;;;17.94;56.00;99774.16;1716350;82;21632;-76
2021/06/05 03:44:42;;;;;;;9.58;6.05;;;;;;;18.43;54.92;99760.25;1717065;82;21563;-76
2021/06/05 03:47:10;;;;;;;10.05;6.20;;;;;;;18.92;53.52;99771.72;1713991;83;21004;-76
2021/06/05 03:49:39;;;;;;;10.90;6.60;;;;;;;19.42;52.25;99764.65;1685361;83;21508;-76
2021/06/05 03:52:06;;;;;;;10.65;5.58;;;;;;;19.93;50.71;99762.38;1716751;82;20976;-76
2021/06/05 03:54:33;;;;;;;8.43;4.90;;;;;;;20.34;49.76;99758.80;1715473;82;21552;-77
2021/06/05 03:57:01;;;;;;;10.35;5.78;;;;;;;20.67;48.95;99758.72;1713761;82;21544;-77
2021/06/05 03:59:27;;;;;;;10.00;5.03;;;;;;;20.99;48.20;99763.65;1717168;83;21476;-77
2021/06/05 04:01:53;;;;;;;7.95;5.15;;;;;;;21.18;47.41;99755.66;1714040;82;21089;-77
2021/06/05 04:04:20;;;;;;;9.63;4.85;;;;;;;21.30;47.32;99756.91;1716638;82;21013;-76
2021/06/05 04:06:46;;;;;;;7.95;4.45;;;;;;;21.47;46.86;99771.59;1716983;82;21091;-76
2021/06/05 04:09:13;;;;;;;7.47;4.47;;;;;;;21.65;46.31;99766.80;1718255;82;21052;-77
2021/06/05 04:11:41;;;;;;;10.98;4.87;;;;;;;21.81;45.42;99763.65;1715268;82;21061;-76
2021/06/05 04:14:10;;;;;;;8.43;4.90;;;;;;;21.95;45.37;99762.84;1714433;82;21048;-77
2021/06/05 04:16:36;;;;;;;9.45;5.00;;;;;;;22.19;44.67;99754.22;1716476;82;21040;-77
2021/06/05 04:21:35;;;;;;;10.28;4.28;;;;;;;22.76;43.33;99754.09;1812719;79;22850;-77
2021/06/05 04:24:02;;;;;;;6.50;4.20;;;;;;;23.00;42.77;99750.25;1785088;80;21055;-76
2021/06/05 04:26:29;;;;;;;5.92;4.30;;;;;;;23.36;42.04;99751.30;1717302;82;21083;-77
2021/06/05 04:28:56;;;;;;;6.20;4.22;;;;;;;23.61;40.89;99750.42;1736874;82;21035;-77
2021/06/05 04:31:23;;;;;;;7.40;4.03;;;;;;;23.71;40.67;99752.28;1734367;82;21083;-77
2021/06/05 04:33:49;;;;;;;8.70;4.00;;;;;;;23.90;40.73;99748.58;1707671;84;21039;-76
2021/06/05 04:36:16;;;;;;;8.55;4.08;;;;;;;24.08;40.22;99743.25;1722893;83;21083;-77
2021/06/05 04:38:44;;;;;;;6.25;3.45;;;;;;;24.23;39.96;99749.37;1724782;83;21036;-77
2021/06/05 04:41:13;;;;;;;6.05;3.83;;;;;;;24.30;39.70;99742.16;1725329;83;21020;-78
2021/06/05 04:43:39;;;;;;;10.03;4.33;;;;;;;24.41;38.98;99743.46;1725313;83;21039;-76
2021/06/05 04:46:06;;;;;;;9.83;4.12;;;;;;;24.52;38.35;99744.78;1724452;83;21519;-77
2021/06/05 04:48:35;;;;;;;9.23;4.10;;;;;;;24.74;37.72;99743.37;1724486;83;21629;-77
2021/06/05 04:51:02;;;;;;;8.65;4.12;;;;;;;24.81;37.40;99742.86;1685187;84;21042;-77
2021/06/05 04:53:29;;;;;;;8.55;4.05;;;;;;;24.79;37.26;99743.59;1701541;84;20992;-76
2021/06/05 04:55:57;;;;;;;11.22;4.75;;;;;;;24.85;37.27;99737.39;1701405;84;22190;-77
2021/06/05 04:58:23;;;;;;;10.10;4.17;;;;;;;24.91;37.24;99726.27;1698695;84;21511;-76
2021/06/05 05:00:52;;;;;;;8.55;3.70;;;;;;;25.08;36.98;99733.48;1698774;84;21056;-77
2021/06/05 05:03:22;;;;;;;9.63;3.90;;;;;;;25.30;36.81;99728.25;1704537;84;21078;-77
2021/06/05 05:05:51;;;;;;;7.25;3.85;;;;;;;25.31;36.41;99731.28;1703517;84;21032;-77
2021/06/05 05:08:17;;;;;;;7.33;3.92;;;;;;;25.31;36.43;99731.28;1701859;84;21032;-78
2021/06/05 05:10:48;;;;;;;9.48;3.80;;;;;;;25.37;35.79;99726.11;1701419;84;21110;-77
2021/06/05 05:13:18;;;;;;;8.75;3.75;;;;;;;25.29;35.55;99727.92;1702827;84;22450;-79
2021/06/05 05:15:49;;;;;;;6.53;3.40;;;;;;;25.29;35.51;99729.28;1698034;84;21514;-80
2021/06/05 05:18:17;;;;;;;7.22;3.65;;;;;;;25.17;36.10;99725.53;1712662;84;21047;-79
2021/06/05 05:20:44;;;;;;;7.08;3.60;;;;;;;25.21;36.38;99723.25;1677804;85;21425;-77
2021/06/05 05:23:12;;;;;;;5.90;3.67;;;;;;;25.32;35.48;99725.33;1691066;85;21033;-78
2021/06/05 05:25:41;;;;;;;7.97;4.00;;;;;;;25.34;35.43;99721.38;1692470;85;21005;-75
2021/06/05 05:28:10;;;;;;;8.25;4.08;;;;;;;25.27;35.43;99715.64;1692517;85;21099;-74
2021/06/05 05:30:44;;;;;;;7.33;3.50;;;;;;;25.29;34.99;99710.34;1692660;85;21044;-77
2021/06/05 05:33:10;;;;;;;7.03;3.50;;;;;;;25.30;34.62;99710.66;1691000;83;21117;-76
2021/06/05 05:35:38;;;;;;;8.95;3.67;;;;;;;25.15;35.09;99703.23;1747873;82;21528;-81
2021/06/05 05:38:08;;;;;;;7.10;3.55;;;;;;;25.14;35.20;99711.03;1747646;82;21571;-77
2021/06/05 05:40:35;;;;;;;6.62;3.30;;;;;;;25.19;35.83;99701.78;1746555;82;21430;-77
2021/06/05 05:43:01;;;;;;;4.67;3.17;;;;;;;25.32;35.01;99712.65;1747946;82;21048;-77
2021/06/05 05:45:29;;;;;;;12.55;3.83;;;;;;;25.45;35.23;99701.53;1747906;82;21596;-79
2021/06/05 05:47:56;;;;;;;4.92;3.17;;;;;;;25.34;34.78;99702.43;1751518;82;21012;-79
2021/06/05 05:50:23;;;;;;;8.15;4.10;;;;;;;25.18;34.88;99708.26;1746917;82;20964;-78
2021/06/05 05:52:49;;;;;;;5.80;3.60;;;;;;;25.19;34.60;99700.43;1747970;82;21014;-78
2021/06/05 05:55:16;;;;;;;7.87;3.45;;;;;;;25.19;34.50;99702.64;1748171;82;21037;-78
2021/06/05 05:57:47;;;;;;;6.28;3.40;;;;;;;25.15;34.85;99704.06;1742556;82;21561;-77
2021/06/05 06:00:17;;;;;;;5.72;2.90;;;;;;;25.15;35.65;99701.89;1734047;82;21031;-77
2021/06/05 06:02:46;;;;;;;6.20;2.67;;;;;;;25.25;34.44;99695.55;1743799;81;21587;-77
2021/06/05 06:05:14;;;;;;;3.98;2.67;;;;;;;25.26;34.29;99698.58;1745603;82;21044;-79
2021/06/05 06:07:41;;;;;;;5.33;2.95;;;;;;;25.19;34.56;99692.31;1712577;84;21065;-79
2021/06/05 06:10:09;;;;;;;4.95;2.80;;;;;;;25.17;34.60;99693.05;1742342;82;21052;-78
2021/06/05 06:12:36;;;;;;;8.45;3.27;;;;;;;25.18;34.39;99690.14;1747385;82;20984;-78
2021/06/05 06:15:10;;;;;;;5.55;3.12;;;;;;;25.12;35.25;99686.89;1747405;82;21006;-77
2021/06/05 06:17:37;;;;;;;10.23;3.22;;;;;;;25.08;34.74;99688.84;1727362;82;21556;-78
2021/06/05 06:20:07;;;;;;;6.15;3.20;;;;;;;25.02;34.89;99680.52;1737999;82;21502;-78
2021/06/05 06:22:33;;;;;;;5.80;2.77;;;;;;;24.97;34.27;99680.30;1749422;82;21018;-78
2021/06/05 06:25:02;;;;;;;5.30;4.10;;;;;;;24.80;34.57;99685.78;1712221;83;21005;-78
2021/06/05 06:27:28;;;;;;;5.90;2.75;;;;;;;24.81;34.62;99676.60;1724328;82;21040;-78
2021/06/05 06:29:54;;;;;;;5.35;3.70;;;;;;;24.78;34.49;99671.61;1723135;83;21043;-78
2021/06/05 06:32:21;;;;;;;5.47;3.10;;;;;;;24.74;35.22;99671.71;1722110;83;21158;-78
2021/06/05 06:34:47;;;;;;;10.28;4.10;;;;;;;24.74;34.83;99669.00;1722388;82;21001;-77
2021/06/05 06:37:14;;;;;;;6.90;5.20;;;;;;;24.74;34.84;99674.41;1703323;83;21108;-79
2021/06/05 06:39:41;;;;;;;5.62;2.70;;;;;;;24.73;35.39;99667.33;1732811;82;20988;-79
2021/06/05 06:42:07;;;;;;;5.15;3.00;;;;;;;24.63;35.15;99667.17;1721519;82;20992;-79
2021/06/05 06:44:33;;;;;;;7.08;3.37;;;;;;;24.52;35.35;99662.34;1697057;82;21532;-79
2021/06/05 06:47:01;;;;;;;4.60;3.00;;;;;;;24.41;35.56;99667.78;1756436;82;21032;-79
2021/06/05 06:49:28;;;;;;;4.53;2.95;;;;;;;24.42;36.23;99669.98;1726239;82;21056;-79
2021/06/05 06:51:54;;;;;;;5.97;3.15;;;;;;;24.57;36.42;99663.92;1722066;83;21076;-79
2021/06/05 06:54:22;;;;;;;6.67;4.08;;;;;;;24.76;36.41;99666.41;1714028;83;21099;-79
2021/06/05 06:56:48;;;;;;;6.50;3.30;;;;;;;24.91;34.68;99670.31;1706407;83;21024;-79
2021/06/05 06:59:15;;;;;;;6.65;3.05;;;;;;;24.92;34.99;99663.02;1692763;85;21089;-79
2021/06/05 07:01:42;;;;;;;5.67;3.50;;;;;;;24.95;35.44;99668.86;1693074;85;21071;-78
2021/06/05 07:04:10;;;;;;;7.35;3.37;;;;;;;24.90;34.72;99660.53;1693282;85;21024;-79
2021/06/05 07:06:37;;;;;;;5.15;2.40;;;;;;;24.81;34.93;99665.78;1692445;85;21698;-78
2021/06/05 07:09:05;;;;;;;6.00;3.12;;;;;;;24.76;34.51;99654.75;1692950;85;21032;-78
2021/06/05 07:11:34;;;;;;;8.18;4.45;;;;;;;24.79;35.18;99654.36;1722275;82;21036;-78
2021/06/05 07:14:04;;;;;;;10.03;4.67;;;;;;;24.70;34.58;99654.52;1714902;83;21096;-79
2021/06/05 07:16:31;;;;;;;5.78;3.12;;;;;;;24.57;34.56;99658.52;1695743;83;21008;-78
2021/06/05 07:18:58;;;;;;;4.65;2.98;;;;;;;24.44;34.23;99655.23;1693185;85;21539;-79
2021/06/05 07:21:25;;;;;;;5.20;3.00;;;;;;;24.35;35.14;99653.22;1720591;82;21024;-79
2021/06/05 07:23:52;;;;;;;7.00;2.52;;;;;;;24.32;35.33;99656.33;1747611;82;21618;-79
2021/06/05 07:26:25;;;;;;;8.13;2.98;;;;;;;24.37;34.61;99655.22;1747401;81;20997;-78
2021/06/05 07:28:58;;;;;;;4.53;2.70;;;;;;;24.51;34.59;99652.55;1743648;82;21060;-80
2021/06/05 07:31:32;;;;;;;5.28;2.92;;;;;;;24.51;34.43;99649.86;1744362;81;21064;-82
2021/06/05 07:33:58;;;;;;;7.35;3.45;;;;;;;24.33;34.57;99645.00;1749631;82;21005;-82
2021/06/05 07:36:35;;;;;;;12.80;3.35;;;;;;;24.30;34.27;99642.18;1748363;82;21004;-79
2021/06/05 07:39:05;;;;;;;4.78;2.92;;;;;;;24.21;34.92;99636.10;1712245;82;21012;-80
2021/06/05 07:41:32;;;;;;;5.75;3.17;;;;;;;24.04;35.62;99641.01;1738076;82;21425;-80
2021/06/05 07:43:58;;;;;;;5.83;3.00;;;;;;;24.08;36.87;99629.80;1746514;81;21056;-79
2021/06/05 07:46:25;;;;;;;5.62;2.70;;;;;;;24.26;35.86;99621.15;1730272;82;21032;-80
2021/06/05 07:48:51;;;;;;;5.97;2.95;;;;;;;24.44;34.96;99623.30;1740808;82;21108;-77
2021/06/05 07:51:18;;;;;;;6.85;2.90;;;;;;;24.49;34.86;99626.23;1745200;82;21508;-79
2021/06/05 07:53:47;;;;;;;4.67;3.00;;;;;;;24.50;34.55;99620.65;1737365;82;21520;-79
2021/06/05 07:56:15;;;;;;;8.83;3.10;;;;;;;24.35;34.56;99622.14;1744657;82;21040;-78
2021/06/05 07:58:42;;;;;;;6.67;3.10;;;;;;;24.26;34.95;99613.90;1748112;82;21565;-78
2021/06/05 08:01:08;;;;;;;5.53;3.58;;;;;;;24.15;35.23;99614.47;1748190;82;20997;-78
2021/06/05 08:03:34;;;;;;;4.65;3.05;;;;;;;24.04;35.31;99615.84;1748255;82;21091;-78
2021/06/05 08:06:00;;;;;;;8.03;3.00;;;;;;;23.79;35.19;99610.91;1737037;82;20967;-78
2021/06/05 08:08:27;;;;;;;5.08;3.20;;;;;;;23.48;35.59;99612.64;1737621;82;21060;-78
2021/06/05 08:10:54;;;;;;;3.55;2.70;;;;;;;23.28;35.91;99613.84;1748243;82;21384;-78
2021/06/05 08:13:24;;;;;;;8.55;3.12;;;;;;;23.23;36.37;99613.89;1738854;82;21012;-78
2021/06/05 08:15:51;;;;;;;5.20;3.00;;;;;;;23.24;36.30;99610.70;1707984;84;21038;-79
2021/06/05 08:18:20;;;;;;;6.00;2.87;;;;;;;23.37;36.28;99607.28;1707562;84;21526;-78
2021/06/05 08:20:58;;;;;;;5.25;2.70;;;;;;;23.44;36.37;99604.63;1708215;84;21610;-78
2021/06/05 08:23:27;;;;;;;13.10;3.20;;;;;;;23.49;36.47;99604.87;1735846;82;20972;-78
2021/06/05 08:25:56;;;;;;;6.20;2.70;;;;;;;23.56;36.69;99601.19;1747781;82;21017;-79
2021/06/05 08:28:24;;;;;;;6.40;2.70;;;;;;;23.58;35.66;99600.98;1747881;82;21074;-78
2021/06/05 08:30:52;;;;;;;4.50;2.98;;;;;;;23.49;35.90;99600.81;1747931;81;21052;-78
2021/06/05 08:33:19;;;;;;;4.00;3.47;;;;;;;23.42;35.32;99598.08;1747593;82;21500;-77
2021/06/05 08:35:46;;;;;;;11.65;4.58;;;;;;;23.36;36.04;99591.61;1747703;82;21028;-77
2021/06/05 08:38:15;;;;;;;4.10;2.87;;;;;;;23.35;36.45;99596.69;1747924;82;21032;-78
2021/06/05 08:41:14;;;;;;;6.00;2.67;;;;;;;23.24;37.16;99597.21;1747600;82;21504;-70
2021/06/05 08:43:56;;;;;;;5.53;2.60;;;;;;;23.13;36.74;99592.30;1747670;82;21126;-69
2021/06/05 08:46:27;;;;;;;7.92;3.37;;;;;;;22.91;36.31;99588.27;1746858;82;21515;-69
2021/06/05 08:48:56;;;;;;;5.42;3.58;;;;;;;22.82;36.88;99584.03;1747919;82;21055;-69
2021/06/05 08:51:52;;;;;;;5.30;2.87;;;;;;;22.83;36.92;99579.79;1727178;82;21015;-69
2021/06/05 08:54:48;;;;;;;6.05;3.00;;;;;;;22.88;37.26;99587.31;1748159;82;21554;-68
2021/06/05 08:57:38;;;;;;;5.65;2.70;;;;;;;23.08;36.99;99585.64;1747790;82;21566;-68
2021/06/05 09:00:20;;;;;;;6.35;4.05;;;;;;;23.20;36.86;99575.70;1747742;82;21558;-68
2021/06/05 09:02:49;;;;;;;8.95;3.10;;;;;;;23.23;36.30;99586.09;1747895;82;21034;-68
2021/06/05 09:05:19;;;;;;;6.15;2.90;;;;;;;23.19;35.87;99586.98;1747908;82;21523;-68
2021/06/05 09:07:45;;;;;;;6.00;2.60;;;;;;;23.10;35.27;99579.22;1748108;82;21043;-68
2021/06/05 09:10:15;;;;;;;7.60;3.00;;;;;;;22.95;35.61;99576.06;1747231;82;21027;-69
2021/06/05 09:12:42;;;;;;;5.67;2.80;;;;;;;22.84;35.69;99575.22;1747583;82;21051;-69
2021/06/05 09:15:12;;;;;;;7.67;2.72;;;;;;;22.79;36.21;99572.27;1748133;82;21033;-69
2021/06/05 09:17:47;;;;;;;8.00;3.65;;;;;;;22.84;36.61;99567.98;1737200;82;21536;-69
2021/06/05 09:20:39;;;;;;;6.05;2.85;;;;;;;23.02;36.27;99572.92;1747847;82;21045;-69
2021/06/05 09:23:30;;;;;;;6.05;2.80;;;;;;;23.21;36.31;99569.25;1741080;82;21568;-69
2021/06/05 09:26:00;;;;;;;4.50;2.40;;;;;;;23.49;35.76;99563.04;1728561;82;21090;-70
2021/06/05 09:28:32;;;;;;;3.42;2.67;;;;;;;23.81;34.30;99567.00;1709299;82;21005;-70
2021/06/05 09:31:21;;;;;;;6.60;2.87;;;;;;;23.87;34.42;99558.07;1741412;82;21116;-69
2021/06/05 09:33:48;;;;;;;3.25;2.37;;;;;;;23.85;33.80;99556.61;1726986;82;20962;-69
2021/06/05 09:36:34;;;;;;;5.17;2.60;;;;;;;23.70;34.63;99556.22;1736851;82;21017;-70
2021/06/05 09:39:06;;;;;;;5.60;3.20;;;;;;;23.56;34.51;99551.25;1734980;82;21001;-69
2021/06/05 09:41:40;;;;;;;8.15;3.17;;;;;;;23.39;34.06;99554.78;1741277;82;21635;-69
2021/06/05 09:44:26;;;;;;;7.05;2.70;;;;;;;23.26;34.71;99560.06;1741318;82;21559;-69
2021/06/05 09:47:18;;;;;;;4.70;2.60;;;;;;;23.10;35.45;99553.59;1741055;82;21061;-69
2021/06/05 09:49:50;;;;;;;3.17;2.60;;;;;;;22.95;35.46;99551.79;1701406;84;21513;-72
2021/06/05 09:52:26;;;;;;;4.72;2.60;;;;;;;22.83;36.04;99558.23;1713994;82;21017;-71
2021/06/05 09:55:17;;;;;;;4.17;2.52;;;;;;;22.77;35.81;99550.08;1722399;83;21591;-71
2021/06/05 09:57:46;;;;;;;4.95;2.52;;;;;;;22.66;36.00;99546.88;1721602;83;21030;-70
2021/06/05 10:00:25;;;;;;;5.05;2.47;;;;;;;22.54;36.72;99554.61;1722391;83;21068;-71
2021/06/05 10:02:56;;;;;;;5.37;2.72;;;;;;;22.47;37.21;99556.91;1700717;83;21521;-71
2021/06/05 10:05:37;;;;;;;5.80;2.62;;;;;;;22.49;37.32;99554.34;1737908;82;21081;-71
2021/06/05 10:08:36;;;;;;;5.35;2.55;;;;;;;22.67;36.62;99544.47;1741265;82;20982;-71
2021/06/05 10:11:27;;;;;;;6.92;2.72;;;;;;;22.96;36.03;99548.08;1734480;82;21029;-70
2021/06/05 10:14:04;;;;;;;3.95;2.30;;;;;;;23.21;36.86;99540.94;1734749;82;21049;-70
2021/06/05 10:16:31;;;;;;;4.60;2.40;;;;;;;23.51;34.72;99540.75;1731240;82;21045;-70
2021/06/05 10:19:03;;;;;;;6.58;2.45;;;;;;;23.65;33.41;99531.69;1729032;82;21014;-70
2021/06/05 10:21:39;;;;;;;3.92;2.40;;;;;;;23.66;33.22;99532.02;1729194;82;20977;-70
2021/06/05 10:24:37;;;;;;;5.22;2.47;;;;;;;23.59;33.15;99531.13;1719534;83;21050;-70
2021/06/05 10:27:11;;;;;;;7.15;3.15;;;;;;;23.50;33.42;99535.03;1721312;83;20991;-70
2021/06/05 10:29:53;;;;;;;5.80;2.83;;;;;;;23.34;34.09;99531.61;1719997;83;21010;-70
2021/06/05 10:32:33;;;;;;;5.10;2.85;;;;;;;23.29;34.83;99530.02;1686794;84;21076;-70
2021/06/05 10:35:24;;;;;;;6.17;2.55;;;;;;;23.18;34.89;99531.37;1686935;84;21041;-70
2021/06/05 10:37:50;;;;;;;6.17;2.90;;;;;;;23.00;35.01;99529.13;1687105;84;21044;-69
2021/06/05 10:40:22;;;;;;;5.20;2.50;;;;;;;22.80;35.90;99520.03;1686946;85;21583;-69
2021/06/05 10:42:50;;;;;;;6.00;3.00;;;;;;;22.62;35.95;99524.00;1687367;85;21040;-70
2021/06/05 10:45:28;;;;;;;9.30;3.20;;;;;;;22.53;36.56;99522.47;1686906;84;21579;-70
2021/06/05 10:48:09;;;;;;;7.17;3.40;;;;;;;22.56;37.21;99520.75;1702040;84;21013;-69
2021/06/05 10:50:45;;;;;;;10.75;3.77;;;;;;;22.63;36.91;99519.47;1694427;84;21021;-70
2021/06/05 10:53:29;;;;;;;4.30;2.77;;;;;;;22.71;37.62;99517.48;1687592;84;21588;-70
2021/06/05 10:56:01;;;;;;;5.72;2.62;;;;;;;22.80;37.29;99520.87;1708689;84;21036;-70
2021/06/05 10:58:44;;;;;;;4.28;2.60;;;;;;;22.88;37.09;99511.30;1705649;84;21516;-70
2021/06/05 11:01:33;;;;;;;7.58;3.30;;;;;;;22.97;37.25;99518.73;1702741;84;21532;-70
2021/06/05 11:04:07;;;;;;;4.62;2.40;;;;;;;23.03;36.40;99516.61;1707758;82;21008;-70
2021/06/05 11:06:49;;;;;;;6.62;2.90;;;;;;;23.06;36.58;99518.91;1699914;84;21105;-70
2021/06/05 11:09:34;;;;;;;5.08;2.70;;;;;;;23.04;36.04;99518.29;1712263;84;21600;-69
2021/06/05 11:12:17;;;;;;;4.12;2.58;;;;;;;23.10;35.84;99518.02;1710596;82;21210;-70
2021/06/05 11:14:47;;;;;;;6.95;2.95;;;;;;;23.13;34.53;99512.73;1702456;84;21006;-70
2021/06/05 11:17:35;;;;;;;5.70;2.80;;;;;;;23.18;35.10;99518.41;1702224;84;20996;-70
2021/06/05 11:20:10;;;;;;;5.33;2.90;;;;;;;23.25;35.28;99517.95;1695227;84;21055;-71
2021/06/05 11:22:54;;;;;;;4.92;2.58;;;;;;;23.33;36.43;99522.36;1710435;83;21601;-70
2021/06/05 11:25:32;;;;;;;5.72;3.08;;;;;;;23.47;35.63;99516.55;1747572;82;21043;-70
2021/06/05 11:28:01;;;;;;;10.68;2.70;;;;;;;23.64;34.95;99513.00;1747626;82;20991;-70
2021/06/05 11:30:33;;;;;;;11.48;3.20;;;;;;;23.68;35.16;99504.81;1696927;82;21544;-69
2021/06/05 11:33:09;;;;;;;6.80;3.10;;;;;;;23.66;35.31;99508.25;1744704;82;21032;-71
2021/06/05 11:35:57;;;;;;;4.25;2.70;;;;;;;23.70;36.13;99499.53;1746214;82;21041;-70
2021/06/05 11:38:27;;;;;;;3.60;2.45;;;;;;;23.98;36.07;99500.00;1741647;82;20993;-70
2021/06/05 11:41:07;;;;;;;4.20;2.50;;;;;;;24.34;36.03;99502.09;1746690;82;21093;-69
2021/06/05 11:43:42;;;;;;;4.22;2.70;;;;;;;24.54;34.30;99504.82;1746660;82;20945;-70
2021/06/05 11:46:24;;;;;;;6.00;2.62;;;;;;;24.56;33.68;99503.28;1741447;82;21038;-69
2021/06/05 11:49:01;;;;;;;6.10;2.70;;;;;;;24.56;33.92;99508.16;1745129;82;21037;-70
2021/06/05 11:51:42;;;;;;;19.42;3.17;;;;;;;24.62;33.86;99502.47;1744420;82;21517;-70
2021/06/05 11:54:19;;;;;;;6.92;2.80;;;;;;;24.59;33.77;99501.01;1753375;82;21059;-70